Time,TemperatureF,DewpointF,PressureIn,WindDirection,WindDirectionDegrees,WindSpeedMPH,WindSpeedGustMPH,Humidity,HourlyPrecipIn,Conditions,Clouds,dailyrainin,SolarRadiationWatts/m^2,SoftwareType,DateUTC
2013-05-27 00:01:00,72.0,8.0,-100.00,West,273,16.0,22.0,8,-99.99,,,-99.99,0.000000,,2013-05-27 06:01:00,
2013-05-27 00:11:00,72.0,8.0,-100.00,West,269,17.0,23.0,8,-99.99,,,-99.99,0.000000,,2013-05-27 06:11:00,
2013-05-27 00:21:00,71.0,8.0,-100.00,West,273,17.0,21.0,8,-99.99,,,-99.99,0.000000,,2013-05-27 06:21:00,
2013-05-27 00:32:00,71.0,8.0,-100.00,West,273,17.0,21.0,8,-99.99,,,-99.99,0.000000,,2013-05-27 06:32:00,
2013-05-27 00:42:00,71.0,8.0,-100.00,West,278,16.0,23.0,8,-99.99,,,-99.99,0.000000,,2013-05-27 06:42:00,
2013-05-27 00:52:00,71.0,8.0,-100.00,West,277,15.0,19.0,8,-99.99,,,-99.99,0.000000,,2013-05-27 06:52:00,
2013-05-27 01:02:00,71.0,8.0,-100.00,West,277,15.0,19.0,8,-99.99,,,-99.99,0.000000,,2013-05-27 07:02:00,
2013-05-27 01:11:00,72.0,8.0,-100.00,West,277,14.0,19.0,8,-99.99,,,-99.99,0.000000,,2013-05-27 07:11:00,
2013-05-27 01:21:00,72.0,8.0,-100.00,West,276,14.0,20.0,8,-99.99,,,-99.99,0.000000,,2013-05-27 07:21:00,
2013-05-27 01:32:00,71.0,8.0,-100.00,West,272,17.0,20.0,8,-99.99,,,-99.99,0.000000,,2013-05-27 07:32:00,
2013-05-27 01:42:00,71.0,8.0,-100.00,West,272,17.0,20.0,8,-99.99,,,-99.99,0.000000,,2013-05-27 07:42:00,
2013-05-27 01:52:00,71.0,8.0,-100.00,West,272,17.0,22.0,8,-99.99,,,-99.99,0.000000,,2013-05-27 07:52:00,
2013-05-27 02:02:00,71.0,8.0,-100.00,West,272,17.0,22.0,8,-99.99,,,-99.99,0.000000,,2013-05-27 08:02:00,
2013-05-27 02:11:00,71.0,8.0,-100.00,West,262,17.0,25.0,8,-99.99,,,-99.99,0.000000,,2013-05-27 08:11:00,
2013-05-27 02:22:00,71.0,8.0,-100.00,West,263,17.0,23.0,8,-99.99,,,-99.99,0.000000,,2013-05-27 08:22:00,
2013-05-27 02:32:00,71.0,8.0,-100.00,West,263,17.0,23.0,8,-99.99,,,-99.99,0.000000,,2013-05-27 08:32:00,
2013-05-27 02:42:00,71.0,8.0,-100.00,WSW,253,19.0,25.0,8,-99.99,,,-99.99,0.000000,,2013-05-27 08:42:00,
2013-05-27 02:52:00,71.0,8.0,-100.00,WSW,254,19.0,24.0,8,-99.99,,,-99.99,0.000000,,2013-05-27 08:52:00,
2013-05-27 03:02:00,71.0,8.0,-100.00,WSW,254,19.0,24.0,8,-99.99,,,-99.99,0.000000,,2013-05-27 09:02:00,
2013-05-27 03:11:00,71.0,8.0,-100.00,WSW,254,19.0,23.0,8,-99.99,,,-99.99,0.000000,,2013-05-27 09:11:00,
2013-05-27 03:21:00,71.0,8.0,-100.00,WSW,254,21.0,25.0,8,-99.99,,,-99.99,0.000000,,2013-05-27 09:21:00,
2013-05-27 03:33:00,71.0,8.0,-100.00,WSW,254,21.0,25.0,8,-99.99,,,-99.99,0.000000,,2013-05-27 09:33:00,
2013-05-27 03:42:00,70.0,8.0,-100.00,WSW,254,21.0,27.0,8,-99.99,,,-99.99,0.000000,,2013-05-27 09:42:00,
2013-05-27 03:53:00,70.0,8.0,-100.00,WSW,253,20.0,25.0,8,-99.99,,,-99.99,0.000000,,2013-05-27 09:53:00,
2013-05-27 04:02:00,70.0,8.0,-100.00,WSW,253,20.0,25.0,8,-99.99,,,-99.99,0.000000,,2013-05-27 10:02:00,
2013-05-27 04:12:00,70.0,8.0,-100.00,WSW,257,19.0,24.0,8,-99.99,,,-99.99,0.000000,,2013-05-27 10:12:00,
2013-05-27 04:22:00,68.0,8.0,-100.00,WSW,257,19.0,26.0,9,-99.99,,,-99.99,0.000000,,2013-05-27 10:22:00,
2013-05-27 04:32:00,68.0,8.0,-100.00,WSW,254,20.0,25.0,9,-99.99,,,-99.99,0.000000,,2013-05-27 10:32:00,
2013-05-27 04:42:00,68.0,8.0,-100.00,WSW,254,20.0,25.0,9,-99.99,,,-99.99,0.000000,,2013-05-27 10:42:00,
2013-05-27 04:52:00,69.0,8.0,-100.00,WSW,252,19.0,25.0,8,-99.99,,,-99.99,0.000000,,2013-05-27 10:52:00,
2013-05-27 05:02:00,69.0,8.0,-100.00,WSW,252,19.0,25.0,8,-99.99,,,-99.99,0.000000,,2013-05-27 11:02:00,
2013-05-27 05:11:00,69.0,8.0,-100.00,WSW,250,19.0,28.0,9,-99.99,,,-99.99,0.000000,,2013-05-27 11:11:00,
2013-05-27 05:22:00,69.0,8.0,-100.00,WSW,250,19.0,28.0,9,-99.99,,,-99.99,0.000000,,2013-05-27 11:22:00,
2013-05-27 05:32:00,69.0,8.0,-100.00,WSW,250,19.0,28.0,9,-99.99,,,-99.99,0.000000,,2013-05-27 11:32:00,
2013-05-27 05:42:00,68.0,8.0,-100.00,West,259,18.0,23.0,9,-99.99,,,-99.99,0.000000,,2013-05-27 11:42:00,
2013-05-27 05:52:00,67.0,8.0,-100.00,West,264,18.0,23.0,9,-99.99,,,-99.99,0.000000,,2013-05-27 11:52:00,
2013-05-27 06:01:00,67.0,8.0,-100.00,West,264,18.0,23.0,9,-99.99,,,-99.99,0.000000,,2013-05-27 12:01:00,
2013-05-27 06:11:00,68.0,8.0,-100.00,WSW,255,22.0,29.0,9,-99.99,,,-99.99,0.000000,,2013-05-27 12:11:00,
2013-05-27 06:22:00,69.0,8.0,-100.00,WSW,258,22.0,31.0,9,-99.99,,,-99.99,3.490000,,2013-05-27 12:22:00,
2013-05-27 06:32:00,69.0,8.0,-100.00,WSW,258,22.0,31.0,9,-99.99,,,-99.99,3.490000,,2013-05-27 12:32:00,
2013-05-27 06:42:00,68.0,8.0,-100.00,WSW,258,19.0,25.0,9,-99.99,,,-99.99,10.460000,,2013-05-27 12:42:00,
2013-05-27 06:52:00,68.0,8.0,-100.00,West,259,17.0,22.0,9,-99.99,,,-99.99,59.270000,,2013-05-27 12:52:00,
2013-05-27 07:01:00,68.0,8.0,-100.00,West,259,17.0,22.0,9,-99.99,,,-99.99,59.270000,,2013-05-27 13:01:00,
2013-05-27 07:11:00,69.0,8.0,-100.00,WSW,257,17.0,22.0,9,-99.99,,,-99.99,133.889999,,2013-05-27 13:11:00,
2013-05-27 07:22:00,69.0,8.0,-100.00,WSW,257,18.0,22.0,9,-99.99,,,-99.99,139.470001,,2013-05-27 13:22:00,
2013-05-27 07:32:00,69.0,8.0,-100.00,WSW,257,18.0,22.0,9,-99.99,,,-99.99,139.470001,,2013-05-27 13:32:00,
2013-05-27 07:42:00,70.0,8.0,-100.00,WSW,257,19.0,23.0,9,-99.99,,,-99.99,144.350006,,2013-05-27 13:42:00,
2013-05-27 07:53:00,70.0,8.0,-100.00,WSW,250,21.0,26.0,8,-99.99,,,-99.99,165.970001,,2013-05-27 13:53:00,
2013-05-27 08:01:00,70.0,8.0,-100.00,WSW,250,21.0,26.0,8,-99.99,,,-99.99,165.970001,,2013-05-27 14:01:00,
2013-05-27 08:11:00,71.0,8.0,-100.00,WSW,252,24.0,27.0,8,-99.99,,,-99.99,232.910004,,2013-05-27 14:11:00,
2013-05-27 08:21:00,71.0,8.0,-100.00,WSW,251,23.0,27.0,8,-99.99,,,-99.99,311.709991,,2013-05-27 14:21:00,
2013-05-27 08:32:00,71.0,8.0,-100.00,WSW,251,23.0,27.0,8,-99.99,,,-99.99,311.709991,,2013-05-27 14:32:00,
2013-05-27 08:42:00,71.0,8.0,-100.00,WSW,249,24.0,28.0,8,-99.99,,,-99.99,364.010010,,2013-05-27 14:42:00,
2013-05-27 08:52:00,72.0,9.0,-100.00,WSW,249,25.0,31.0,8,-99.99,,,-99.99,376.559998,,2013-05-27 14:52:00,
2013-05-27 09:01:00,72.0,9.0,-100.00,WSW,249,25.0,31.0,8,-99.99,,,-99.99,376.559998,,2013-05-27 15:01:00,
2013-05-27 09:11:00,71.0,9.0,-100.00,WSW,251,26.0,32.0,8,-99.99,,,-99.99,327.049988,,2013-05-27 15:11:00,
2013-05-27 09:21:00,72.0,9.0,-100.00,WSW,251,28.0,35.0,8,-99.99,,,-99.99,486.040009,,2013-05-27 15:21:00,
2013-05-27 09:33:00,72.0,9.0,-100.00,WSW,251,28.0,35.0,8,-99.99,,,-99.99,486.040009,,2013-05-27 15:33:00,
2013-05-27 09:43:00,71.0,9.0,-100.00,WSW,247,26.0,30.0,8,-99.99,,,-99.99,453.959991,,2013-05-27 15:43:00,
2013-05-27 09:53:00,71.0,9.0,-100.00,WSW,249,27.0,32.0,8,-99.99,,,-99.99,371.679993,,2013-05-27 15:53:00,
2013-05-27 10:03:00,71.0,9.0,-100.00,WSW,249,27.0,32.0,8,-99.99,,,-99.99,371.679993,,2013-05-27 16:03:00,
2013-05-27 10:12:00,72.0,9.0,-100.00,WSW,248,27.0,32.0,8,-99.99,,,-99.99,386.320007,,2013-05-27 16:12:00,
2013-05-27 10:23:00,71.0,9.0,-100.00,WSW,243,28.0,35.0,8,-99.99,,,-99.99,428.859985,,2013-05-27 16:23:00,
2013-05-27 10:33:00,73.0,10.0,-100.00,WSW,247,27.0,34.0,8,-99.99,,,-99.99,754.510010,,2013-05-27 16:33:00,
2013-05-27 10:42:00,73.0,10.0,-100.00,WSW,247,27.0,34.0,8,-99.99,,,-99.99,754.510010,,2013-05-27 16:42:00,
2013-05-27 10:53:00,73.0,12.0,-100.00,WSW,246,29.0,37.0,9,-99.99,,,-99.99,693.150024,,2013-05-27 16:53:00,
2013-05-27 11:02:00,73.0,12.0,-100.00,WSW,246,29.0,37.0,9,-99.99,,,-99.99,693.150024,,2013-05-27 17:02:00,
2013-05-27 11:11:00,74.0,13.0,-100.00,WSW,251,29.0,38.0,9,-99.99,,,-99.99,824.950012,,2013-05-27 17:11:00,
2013-05-27 11:22:00,74.0,14.0,-100.00,West,260,30.0,40.0,9,-99.99,,,-99.99,905.840027,,2013-05-27 17:22:00,
2013-05-27 11:32:00,74.0,14.0,-100.00,West,260,30.0,40.0,9,-99.99,,,-99.99,905.840027,,2013-05-27 17:32:00,
2013-05-27 11:43:00,75.0,14.0,-100.00,WSW,257,30.0,41.0,9,-99.99,,,-99.99,880.030029,,2013-05-27 17:43:00,
2013-05-27 11:52:00,75.0,14.0,-100.00,WSW,257,30.0,41.0,9,-99.99,,,-99.99,880.030029,,2013-05-27 17:52:00,
2013-05-27 12:02:00,75.0,14.0,-100.00,WSW,257,30.0,41.0,9,-99.99,,,-99.99,880.030029,,2013-05-27 18:02:00,
2013-05-27 12:11:00,76.0,14.0,-100.00,West,266,26.0,40.0,9,-99.99,,,-99.99,1004.159973,,2013-05-27 18:11:00,
2013-05-27 12:22:00,76.0,14.0,-100.00,West,260,24.0,34.0,9,-99.99,,,-99.99,997.190002,,2013-05-27 18:22:00,
2013-05-27 12:32:00,76.0,14.0,-100.00,West,260,24.0,34.0,9,-99.99,,,-99.99,997.190002,,2013-05-27 18:32:00,
2013-05-27 12:42:00,77.0,14.0,-100.00,WSW,243,24.0,35.0,9,-99.99,,,-99.99,999.979980,,2013-05-27 18:42:00,
2013-05-27 12:52:00,77.0,14.0,-100.00,WSW,243,25.0,36.0,9,-99.99,,,-99.99,1047.390015,,2013-05-27 18:52:00,
2013-05-27 13:01:00,77.0,14.0,-100.00,WSW,243,25.0,36.0,9,-99.99,,,-99.99,1047.390015,,2013-05-27 19:01:00,
2013-05-27 13:11:00,78.0,13.0,-100.00,WSW,255,22.0,35.0,8,-99.99,,,-99.99,1050.880005,,2013-05-27 19:11:00,
2013-05-27 13:21:00,77.0,13.0,-100.00,WSW,243,24.0,33.0,8,-99.99,,,-99.99,1047.390015,,2013-05-27 19:21:00,
2013-05-27 13:32:00,78.0,13.0,-100.00,WSW,240,21.0,36.0,8,-99.99,,,-99.99,1043.910034,,2013-05-27 19:32:00,
2013-05-27 13:42:00,78.0,13.0,-100.00,WSW,240,21.0,36.0,8,-99.99,,,-99.99,1043.910034,,2013-05-27 19:42:00,
2013-05-27 13:52:00,79.0,13.0,-100.00,WSW,256,25.0,36.0,8,-99.99,,,-99.99,981.150024,,2013-05-27 19:52:00,
2013-05-27 14:01:00,79.0,13.0,-100.00,WSW,256,25.0,36.0,8,-99.99,,,-99.99,981.150024,,2013-05-27 20:01:00,
2013-05-27 14:11:00,80.0,14.0,-100.00,WSW,247,24.0,38.0,8,-99.99,,,-99.99,996.489990,,2013-05-27 20:11:00,
2013-05-27 14:22:00,80.0,13.0,-100.00,WSW,252,26.0,35.0,8,-99.99,,,-99.99,996.489990,,2013-05-27 20:22:00,
2013-05-27 14:32:00,80.0,13.0,-100.00,WSW,252,26.0,35.0,8,-99.99,,,-99.99,996.489990,,2013-05-27 20:32:00,
2013-05-27 14:42:00,79.0,13.0,-100.00,WSW,247,27.0,41.0,7,-99.99,,,-99.99,759.400024,,2013-05-27 20:42:00,
2013-05-27 14:52:00,79.0,13.0,-100.00,WSW,247,27.0,41.0,7,-99.99,,,-99.99,759.400024,,2013-05-27 20:52:00,
2013-05-27 15:01:00,79.0,13.0,-100.00,WSW,247,27.0,41.0,7,-99.99,,,-99.99,759.400024,,2013-05-27 21:01:00,
2013-05-27 15:12:00,80.0,12.0,-100.00,WSW,252,31.0,41.0,7,-99.99,,,-99.99,760.090027,,2013-05-27 21:12:00,
2013-05-27 15:21:00,81.0,11.0,-100.00,WSW,257,30.0,45.0,6,-99.99,,,-99.99,1022.989990,,2013-05-27 21:21:00,
2013-05-27 15:33:00,81.0,9.0,-100.00,WSW,256,31.0,43.0,6,-99.99,,,-99.99,979.750000,,2013-05-27 21:33:00,
2013-05-27 15:43:00,81.0,9.0,-100.00,WSW,256,31.0,43.0,6,-99.99,,,-99.99,979.750000,,2013-05-27 21:43:00,
2013-05-27 15:53:00,81.0,9.0,-100.00,WSW,247,32.0,43.0,6,-99.99,,,-99.99,768.460022,,2013-05-27 21:53:00,
2013-05-27 16:02:00,81.0,9.0,-100.00,WSW,247,32.0,43.0,6,-99.99,,,-99.99,768.460022,,2013-05-27 22:02:00,
2013-05-27 16:12:00,82.0,9.0,-100.00,West,259,32.0,42.0,6,-99.99,,,-99.99,903.739990,,2013-05-27 22:12:00,
2013-05-27 16:22:00,82.0,8.0,-100.00,WSW,246,33.0,44.0,5,-99.99,,,-99.99,847.960022,,2013-05-27 22:22:00,
2013-05-27 16:33:00,82.0,8.0,-100.00,WSW,250,30.0,39.0,5,-99.99,,,-99.99,680.599976,,2013-05-27 22:33:00,
2013-05-27 16:42:00,82.0,8.0,-100.00,WSW,250,30.0,39.0,5,-99.99,,,-99.99,680.599976,,2013-05-27 22:42:00,
2013-05-27 16:53:00,82.0,8.0,-100.00,West,261,29.0,38.0,5,-99.99,,,-99.99,270.570007,,2013-05-27 22:53:00,
2013-05-27 17:02:00,82.0,8.0,-100.00,West,261,29.0,38.0,5,-99.99,,,-99.99,270.570007,,2013-05-27 23:02:00,
2013-05-27 17:12:00,83.0,8.0,-100.00,WSW,252,29.0,40.0,5,-99.99,,,-99.99,444.200012,,2013-05-27 23:12:00,
2013-05-27 17:22:00,83.0,9.0,-100.00,WSW,257,29.0,39.0,5,-99.99,,,-99.99,140.160004,,2013-05-27 23:22:00,
2013-05-27 17:32:00,83.0,9.0,-100.00,WSW,257,29.0,39.0,5,-99.99,,,-99.99,140.160004,,2013-05-27 23:32:00,
2013-05-27 17:42:00,82.0,9.0,-100.00,WSW,250,27.0,39.0,6,-99.99,,,-99.99,129.699997,,2013-05-27 23:42:00,
2013-05-27 17:52:00,81.0,8.0,-100.00,WSW,257,30.0,42.0,6,-99.99,,,-99.99,214.080002,,2013-05-27 23:52:00,
2013-05-27 18:00:00,81.0,7.0,29.94,WSW,256,29.0,40.0,5,-99.99,,,-99.99,227.330002,,2013-05-28 00:00:00,
2013-05-27 18:01:00,81.0,8.0,-100.00,WSW,257,30.0,42.0,6,-99.99,,,-99.99,214.080002,,2013-05-28 00:01:00,
2013-05-27 18:11:00,81.0,8.0,-100.00,WSW,255,32.0,40.0,5,-99.99,,,-99.99,255.919998,,2013-05-28 00:11:00,
2013-05-27 18:21:00,81.0,7.0,29.94,WSW,256,29.0,40.0,5,-99.99,,,-99.99,227.330002,,2013-05-28 00:21:00,
2013-05-27 18:31:00,81.0,7.0,29.94,WSW,256,29.0,40.0,5,-99.99,,,-99.99,227.330002,,2013-05-28 00:31:00,
2013-05-27 18:41:00,81.0,7.0,29.94,WSW,256,29.0,40.0,5,-99.99,,,-99.99,227.330002,,2013-05-28 00:41:00,
2013-05-27 18:52:00,81.0,7.0,29.94,WSW,256,29.0,40.0,5,-99.99,,,-99.99,227.330002,,2013-05-28 00:52:00,
2013-05-27 19:11:00,80.0,7.0,29.93,WSW,249,32.0,41.0,5,-99.99,,,-99.99,91.349998,,2013-05-28 01:11:00,
2013-05-27 19:22:00,79.0,7.0,29.93,WSW,251,32.0,39.0,6,-99.99,,,-99.99,93.440002,,2013-05-28 01:22:00,
2013-05-27 19:32:00,80.0,6.0,29.93,WSW,253,30.0,37.0,5,-99.99,,,-99.99,120.639999,,2013-05-28 01:32:00,
2013-05-27 19:41:00,80.0,6.0,29.93,WSW,253,30.0,37.0,5,-99.99,,,-99.99,120.639999,,2013-05-28 01:41:00,
2013-05-27 19:52:00,80.0,5.0,29.93,WSW,250,30.0,37.0,5,-99.99,,,-99.99,124.820000,,2013-05-28 01:52:00,
2013-05-27 20:02:00,80.0,5.0,29.93,WSW,250,30.0,37.0,5,-99.99,,,-99.99,124.820000,,2013-05-28 02:02:00,
2013-05-27 20:11:00,80.0,6.0,29.93,WSW,244,31.0,39.0,5,-99.99,,,-99.99,57.880001,,2013-05-28 02:11:00,
2013-05-27 20:21:00,79.0,9.0,29.93,West,260,30.0,38.0,6,-99.99,,,-99.99,27.889999,,2013-05-28 02:21:00,
2013-05-27 20:32:00,78.0,10.0,29.94,West,265,27.0,37.0,7,-99.99,,,-99.99,6.970000,,2013-05-28 02:32:00,
2013-05-27 20:42:00,78.0,10.0,29.94,West,265,27.0,37.0,7,-99.99,,,-99.99,6.970000,,2013-05-28 02:42:00,
2013-05-27 20:52:00,77.0,10.0,29.95,West,270,21.0,27.0,7,-99.99,,,-99.99,0.700000,,2013-05-28 02:52:00,
2013-05-27 21:01:00,77.0,10.0,29.95,West,270,21.0,27.0,7,-99.99,,,-99.99,0.700000,,2013-05-28 03:01:00,
2013-05-27 21:11:00,75.0,10.0,29.96,West,278,19.0,23.0,8,-99.99,,,-99.99,0.000000,,2013-05-28 03:11:00,
2013-05-27 21:21:00,75.0,10.0,29.96,West,270,16.0,22.0,8,-99.99,,,-99.99,0.000000,,2013-05-28 03:21:00,
2013-05-27 21:33:00,75.0,10.0,29.96,West,270,16.0,22.0,8,-99.99,,,-99.99,0.000000,,2013-05-28 03:33:00,
2013-05-27 21:43:00,74.0,10.0,29.96,WNW,282,17.0,24.0,8,-99.99,,,-99.99,0.000000,,2013-05-28 03:43:00,
2013-05-27 21:53:00,74.0,8.0,29.97,WNW,286,17.0,20.0,7,-99.99,,,-99.99,0.000000,,2013-05-28 03:53:00,
2013-05-27 22:02:00,74.0,8.0,29.97,WNW,286,17.0,20.0,7,-99.99,,,-99.99,0.000000,,2013-05-28 04:02:00,
2013-05-27 22:13:00,74.0,8.0,29.97,WNW,285,15.0,19.0,7,-99.99,,,-99.99,0.000000,,2013-05-28 04:13:00,
2013-05-27 22:22:00,74.0,8.0,29.97,WNW,285,15.0,19.0,7,-99.99,,,-99.99,0.000000,,2013-05-28 04:22:00,
2013-05-27 22:33:00,74.0,9.0,29.97,West,280,15.0,19.0,8,-99.99,,,-99.99,0.000000,,2013-05-28 04:33:00,
2013-05-27 22:43:00,74.0,9.0,29.97,West,280,15.0,19.0,8,-99.99,,,-99.99,0.000000,,2013-05-28 04:43:00,
2013-05-27 22:53:00,74.0,10.0,29.98,West,276,15.0,20.0,8,-99.99,,,-99.99,0.000000,,2013-05-28 04:53:00,
2013-05-27 23:02:00,74.0,10.0,29.98,West,276,15.0,20.0,8,-99.99,,,-99.99,0.000000,,2013-05-28 05:02:00,
2013-05-27 23:12:00,74.0,10.0,29.98,West,275,15.0,20.0,8,-99.99,,,-99.99,0.000000,,2013-05-28 05:12:00,
2013-05-27 23:22:00,74.0,10.0,29.98,West,270,14.0,18.0,8,-99.99,,,-99.99,0.000000,,2013-05-28 05:22:00,
2013-05-27 23:33:00,74.0,10.0,29.97,West,271,15.0,19.0,8,-99.99,,,-99.99,0.000000,,2013-05-28 05:33:00,
2013-05-27 23:42:00,74.0,10.0,29.97,West,271,15.0,19.0,8,-99.99,,,-99.99,0.000000,,2013-05-28 05:42:00,
2013-05-27 23:52:00,74.0,10.0,29.97,West,266,14.0,18.0,8,-99.99,,,-99.99,0.000000,,2013-05-28 05:52:00,